Time;durP1;ratioP1;P1;durP2;ratioP2;P2;SDS_P1;SDS_P2;PMS_P1;PMS_P2;Temp;Humidity;BMP_temperature;BMP_pressure;BME280_temperature;BME280_humidity;BME280_pressure;Samples;Min_cycle;Max_cycle;Signal;HPM_P1;HPM_P2
2023/10/26 00:01:28;;;;;;;3.33;2.53;;;14.80;99.90;;;;;;5039515;28;20034;-87
2023/10/26 00:03:53;;;;;;;2.85;2.35;;;14.80;99.90;;;;;;5038799;28;20086;-89
2023/10/26 00:06:19;;;;;;;6.68;2.92;;;14.70;99.90;;;;;;5040813;28;20037;-89
2023/10/26 00:08:45;;;;;;;4.95;2.55;;;14.60;99.90;;;;;;5040402;28;20033;-89
2023/10/26 00:11:11;;;;;;;7.38;3.00;;;14.60;99.90;;;;;;5040294;28;20033;-89
2023/10/26 00:13:37;;;;;;;4.05;2.80;;;14.60;99.90;;;;;;5039017;28;20437;-88
2023/10/26 00:16:03;;;;;;;6.30;2.97;;;14.60;99.90;;;;;;5042099;28;20041;-89
2023/10/26 00:18:29;;;;;;;2.88;2.40;;;14.60;99.90;;;;;;5039768;28;20030;-89
2023/10/26 00:20:59;;;;;;;6.95;2.25;;;14.60;99.90;;;;;;5039653;28;20025;-89
2023/10/26 00:23:24;;;;;;;2.13;1.88;;;14.50;99.90;;;;;;5041901;28;20022;-89
2023/10/26 00:25:50;;;;;;;3.60;2.17;;;14.50;99.90;;;;;;5040756;28;20029;-88
2023/10/26 00:28:16;;;;;;;3.88;1.88;;;14.60;99.90;;;;;;5039245;28;20022;-88
2023/10/26 00:30:42;;;;;;;3.65;2.10;;;14.60;99.90;;;;;;5037563;28;20125;-88
2023/10/26 00:33:08;;;;;;;4.07;2.47;;;14.60;99.90;;;;;;5038727;28;20064;-88
2023/10/26 00:35:34;;;;;;;7.80;2.25;;;14.50;99.90;;;;;;5041919;28;20082;-89
2023/10/26 00:38:00;;;;;;;6.18;2.30;;;14.50;99.90;;;;;;5036617;28;20492;-89
2023/10/26 00:40:25;;;;;;;3.35;1.85;;;14.50;99.90;;;;;;5038286;28;20021;-89
2023/10/26 00:43:04;;;;;;;7.05;2.05;;;14.50;99.90;;;;;;5039989;28;20052;-88
2023/10/26 00:45:34;;;;;;;5.07;1.83;;;14.40;99.90;;;;;;5035407;28;20053;-88
2023/10/26 00:48:00;;;;;;;4.20;2.05;;;14.40;99.90;;;;;;5036476;28;20024;-88
2023/10/26 00:50:26;;;;;;;6.32;2.00;;;14.40;99.90;;;;;;5039617;28;20032;-87
2023/10/26 00:52:52;;;;;;;2.97;1.60;;;14.40;99.90;;;;;;5036911;28;20153;-88
2023/10/26 00:55:18;;;;;;;9.70;1.90;;;14.40;99.90;;;;;;5041346;28;20013;-89
2023/10/26 00:57:44;;;;;;;7.25;2.33;;;14.40;99.90;;;;;;5038152;28;20014;-89
2023/10/26 01:00:11;;;;;;;6.18;2.22;;;14.30;99.90;;;;;;5037175;28;20029;-88
2023/10/26 01:02:40;;;;;;;5.03;1.90;;;14.30;99.90;;;;;;5037338;28;20030;-88
2023/10/26 01:05:05;;;;;;;5.13;1.75;;;14.30;99.90;;;;;;5033908;28;20054;-89
2023/10/26 01:07:31;;;;;;;2.92;1.58;;;14.30;99.90;;;;;;5037697;28;20037;-87
2023/10/26 01:09:57;;;;;;;2.90;1.73;;;14.30;99.90;;;;;;5038184;28;20025;-87
2023/10/26 01:12:25;;;;;;;5.65;1.80;;;14.30;99.90;;;;;;5039135;28;20468;-88
2023/10/26 01:14:51;;;;;;;1.60;1.50;;;14.30;99.90;;;;;;5032844;28;20025;-89
2023/10/26 01:17:17;;;;;;;7.63;2.40;;;14.30;99.90;;;;;;5040010;28;20032;-88
2023/10/26 01:19:45;;;;;;;5.57;1.73;;;14.30;99.90;;;;;;5039171;28;20026;-89
2023/10/26 01:22:11;;;;;;;2.97;1.80;;;14.20;99.90;;;;;;5038472;28;20065;-89
2023/10/26 01:24:37;;;;;;;4.15;1.60;;;14.30;99.90;;;;;;5038261;28;20101;-88
2023/10/26 01:27:04;;;;;;;4.35;2.08;;;14.30;99.90;;;;;;5040406;28;20025;-89
2023/10/26 01:29:30;;;;;;;5.38;1.98;;;14.30;99.90;;;;;;5035290;28;20073;-89
2023/10/26 01:31:56;;;;;;;4.72;1.42;;;14.30;99.90;;;;;;5037452;28;20199;-87
2023/10/26 01:34:22;;;;;;;5.13;1.73;;;14.30;99.90;;;;;;5033851;28;20120;-87
2023/10/26 01:36:48;;;;;;;7.07;1.90;;;14.30;99.90;;;;;;5028223;28;20054;-89
2023/10/26 01:39:15;;;;;;;6.38;2.05;;;14.20;99.90;;;;;;5038885;28;20070;-89
2023/10/26 01:41:40;;;;;;;2.47;1.80;;;14.20;99.90;;;;;;5037663;28;20709;-88
2023/10/26 01:44:06;;;;;;;4.53;1.75;;;14.20;99.90;;;;;;5034641;28;20116;-88
2023/10/26 01:46:32;;;;;;;6.78;2.25;;;14.20;99.90;;;;;;5040562;28;20036;-89
2023/10/26 01:49:01;;;;;;;3.75;1.70;;;14.20;99.90;;;;;;5038092;28;20243;-88
2023/10/26 01:51:26;;;;;;;2.28;1.88;;;14.20;99.90;;;;;;5039109;28;20021;-89
2023/10/26 01:53:52;;;;;;;4.50;1.40;;;14.20;99.90;;;;;;5039872;28;20028;-89
2023/10/26 01:56:18;;;;;;;1.95;1.73;;;14.10;99.90;;;;;;5036381;28;20515;-88
2023/10/26 01:58:45;;;;;;;6.80;2.25;;;14.10;99.90;;;;;;5033895;28;20049;-89
2023/10/26 02:01:11;;;;;;;2.22;1.38;;;14.10;99.90;;;;;;5037876;28;20021;-88
2023/10/26 02:03:36;;;;;;;3.38;1.65;;;14.10;99.90;;;;;;5037489;28;20024;-88
2023/10/26 02:06:03;;;;;;;2.38;1.60;;;14.00;99.90;;;;;;5039032;28;20025;-89
2023/10/26 02:08:29;;;;;;;3.22;1.73;;;14.00;99.90;;;;;;5036093;28;20018;-88
2023/10/26 02:10:55;;;;;;;5.13;1.70;;;13.90;99.90;;;;;;5039885;28;20036;-88
2023/10/26 02:13:20;;;;;;;6.50;1.95;;;13.90;99.90;;;;;;5038557;28;20340;-87
2023/10/26 02:15:47;;;;;;;3.53;1.63;;;13.80;99.90;;;;;;5036908;28;20496;-88
2023/10/26 02:18:12;;;;;;;6.00;2.40;;;13.90;99.90;;;;;;5040337;28;20028;-89
2023/10/26 02:20:38;;;;;;;4.93;2.50;;;13.90;99.90;;;;;;5037187;28;20455;-87
2023/10/26 02:23:04;;;;;;;2.40;2.13;;;13.90;99.90;;;;;;5038554;28;20025;-88
2023/10/26 02:25:31;;;;;;;4.18;2.35;;;13.90;99.90;;;;;;5040116;28;20025;-89
2023/10/26 02:27:57;;;;;;;3.45;1.70;;;13.80;99.90;;;;;;5036468;28;20053;-87
2023/10/26 02:30:23;;;;;;;7.22;2.95;;;13.80;99.90;;;;;;5040326;28;20488;-88
2023/10/26 02:32:49;;;;;;;2.92;2.40;;;13.70;99.90;;;;;;5036287;28;20064;-88
2023/10/26 02:35:15;;;;;;;4.63;2.33;;;13.70;99.90;;;;;;5037046;28;20026;-88
2023/10/26 02:37:41;;;;;;;6.30;2.47;;;13.70;99.90;;;;;;5036933;28;20129;-89
2023/10/26 02:40:08;;;;;;;5.07;1.90;;;13.70;99.90;;;;;;5039553;28;20465;-88
2023/10/26 02:42:35;;;;;;;5.78;2.28;;;13.70;99.90;;;;;;5035821;28;20022;-89
2023/10/26 02:45:03;;;;;;;5.03;1.92;;;13.70;99.90;;;;;;5036899;28;20488;-89
2023/10/26 02:47:29;;;;;;;3.70;2.00;;;13.70;99.90;;;;;;5038126;28;20028;-88
2023/10/26 02:49:55;;;;;;;6.72;2.08;;;13.70;99.90;;;;;;5039704;28;20032;-88
2023/10/26 02:52:20;;;;;;;4.15;1.80;;;13.70;99.90;;;;;;5036986;28;20473;-88
2023/10/26 02:54:46;;;;;;;2.38;1.90;;;13.70;99.90;;;;;;5042878;28;20366;-88
2023/10/26 02:57:14;;;;;;;3.10;2.25;;;13.70;99.90;;;;;;5040217;28;20025;-88
2023/10/26 02:59:40;;;;;;;4.88;2.30;;;13.70;99.90;;;;;;5041017;28;20055;-89
2023/10/26 03:02:06;;;;;;;5.55;2.60;;;13.70;99.90;;;;;;5043470;28;20115;-89
2023/10/26 03:04:34;;;;;;;2.60;2.22;;;13.60;99.90;;;;;;5039284;28;20024;-88
2023/10/26 03:07:00;;;;;;;5.03;2.28;;;13.60;99.90;;;;;;5040511;28;20036;-87
2023/10/26 03:09:26;;;;;;;3.45;2.40;;;13.50;99.90;;;;;;5042030;28;20025;-88
2023/10/26 03:11:51;;;;;;;4.05;2.45;;;13.50;99.90;;;;;;5040159;28;20033;-88
2023/10/26 03:14:18;;;;;;;9.30;2.90;;;13.50;99.90;;;;;;5039827;28;20071;-88
2023/10/26 03:16:44;;;;;;;4.38;3.45;;;13.50;99.90;;;;;;5042032;28;20013;-88
2023/10/26 03:19:10;;;;;;;6.18;3.60;;;13.50;99.90;;;;;;5038941;28;20025;-88
2023/10/26 03:21:36;;;;;;;7.13;2.97;;;13.40;99.90;;;;;;5041081;28;20033;-89
2023/10/26 03:24:02;;;;;;;5.55;2.90;;;13.40;99.90;;;;;;5038494;28;20256;-88
2023/10/26 03:26:28;;;;;;;4.80;2.35;;;13.50;99.90;;;;;;5046721;28;20017;-89
2023/10/26 03:28:53;;;;;;;4.28;2.72;;;13.50;99.90;;;;;;5037977;28;20179;-88
2023/10/26 03:31:19;;;;;;;5.00;2.33;;;13.50;99.90;;;;;;5041324;28;20098;-87
2023/10/26 03:33:45;;;;;;;5.38;2.85;;;13.50;99.90;;;;;;5035926;28;20032;-87
2023/10/26 03:36:15;;;;;;;6.22;2.75;;;13.50;99.90;;;;;;5037898;28;20053;-88
2023/10/26 03:38:42;;;;;;;5.55;2.78;;;13.40;99.90;;;;;;5040315;28;20077;-87
2023/10/26 03:41:08;;;;;;;12.70;3.08;;;13.40;99.90;;;;;;5037866;28;20025;-88
2023/10/26 03:43:34;;;;;;;3.97;2.47;;;13.40;99.90;;;;;;5040552;28;20433;-88
2023/10/26 03:45:59;;;;;;;6.88;2.67;;;13.40;99.90;;;;;;5041488;28;20108;-89
2023/10/26 03:48:25;;;;;;;5.63;2.60;;;13.40;99.90;;;;;;5039668;28;20030;-86
2023/10/26 03:51:09;;;;;;;3.72;2.60;;;13.40;99.90;;;;;;5041194;28;20025;-88
2023/10/26 03:53:35;;;;;;;7.15;2.92;;;13.40;99.90;;;;;;5050466;28;20034;-89
2023/10/26 03:56:02;;;;;;;4.63;2.88;;;13.40;99.90;;;;;;5039831;28;20044;-88
2023/10/26 03:58:27;;;;;;;3.00;2.67;;;13.40;99.90;;;;;;5040609;28;20017;-87
2023/10/26 04:00:53;;;;;;;5.10;3.33;;;13.40;99.90;;;;;;5039098;28;20504;-89
2023/10/26 04:03:19;;;;;;;6.47;3.58;;;13.40;99.90;;;;;;5041577;28;20025;-88
2023/10/26 04:05:44;;;;;;;6.75;3.67;;;13.40;99.90;;;;;;5039937;28;20594;-89
2023/10/26 04:08:12;;;;;;;6.03;3.92;;;13.30;99.90;;;;;;5042982;28;20022;-88
2023/10/26 04:10:37;;;;;;;8.55;4.85;;;13.30;99.90;;;;;;5037707;28;20029;-88
2023/10/26 04:13:03;;;;;;;4.95;4.07;;;13.30;99.90;;;;;;5037950;28;20026;-87
2023/10/26 04:15:29;;;;;;;7.05;3.90;;;13.30;99.90;;;;;;5042036;28;20092;-87
2023/10/26 04:17:54;;;;;;;13.82;3.80;;;13.30;99.90;;;;;;5039804;28;20060;-88
2023/10/26 04:20:20;;;;;;;5.03;3.90;;;13.30;99.90;;;;;;5041022;28;20018;-88
2023/10/26 04:22:46;;;;;;;6.05;3.97;;;13.30;99.90;;;;;;5038234;28;20689;-88
2023/10/26 04:25:13;;;;;;;7.93;5.18;;;13.30;99.90;;;;;;5038884;28;20056;-89
2023/10/26 04:27:39;;;;;;;9.13;5.38;;;13.30;99.90;;;;;;5041062;28;20112;-88
2023/10/26 04:30:06;;;;;;;11.38;6.28;;;13.30;99.90;;;;;;5040359;28;20078;-87
2023/10/26 04:32:32;;;;;;;9.02;6.50;;;13.30;99.90;;;;;;5038074;28;20300;-87
2023/10/26 04:34:57;;;;;;;16.05;7.43;;;13.30;99.90;;;;;;5040625;28;20060;-88
2023/10/26 04:37:23;;;;;;;8.82;6.75;;;13.30;99.90;;;;;;5037360;28;20050;-87
2023/10/26 04:39:49;;;;;;;9.70;6.20;;;13.30;99.90;;;;;;5039413;28;20021;-88
2023/10/26 04:42:14;;;;;;;7.88;5.75;;;13.30;99.90;;;;;;5040281;28;20017;-87
2023/10/26 04:44:40;;;;;;;11.57;6.85;;;13.30;99.90;;;;;;5038540;28;20499;-88
2023/10/26 04:47:06;;;;;;;13.40;7.60;;;13.30;99.90;;;;;;5040596;28;20105;-88
2023/10/26 04:49:33;;;;;;;12.45;9.48;;;13.30;99.90;;;;;;5038450;28;20120;-87
2023/10/26 04:51:59;;;;;;;15.77;9.65;;;13.30;99.90;;;;;;5039087;28;20556;-87
2023/10/26 04:54:27;;;;;;;13.85;8.98;;;13.40;99.90;;;;;;5037353;28;20036;-87
2023/10/26 04:56:53;;;;;;;15.90;8.48;;;13.40;99.90;;;;;;5037726;28;20029;-88
2023/10/26 04:59:19;;;;;;;16.05;9.45;;;13.30;99.90;;;;;;5041078;28;20021;-87
2023/10/26 05:01:44;;;;;;;14.35;9.57;;;13.30;99.90;;;;;;5039201;28;20388;-89
2023/10/26 05:04:10;;;;;;;16.38;9.18;;;13.30;99.90;;;;;;5039674;28;20082;-88
2023/10/26 05:06:36;;;;;;;15.05;9.60;;;13.30;99.90;;;;;;5037250;28;20040;-87
2023/10/26 05:09:03;;;;;;;16.85;9.30;;;13.30;99.90;;;;;;5041085;28;20045;-87
2023/10/26 05:11:29;;;;;;;16.10;9.18;;;13.30;99.90;;;;;;5041440;28;20504;-87
2023/10/26 05:13:55;;;;;;;16.40;9.77;;;13.20;99.90;;;;;;5029338;28;20130;-87
2023/10/26 05:16:21;;;;;;;16.30;10.82;;;13.30;99.90;;;;;;5029337;28;20033;-87
2023/10/26 05:18:46;;;;;;;15.63;9.85;;;13.30;99.90;;;;;;5036941;28;20032;-87
2023/10/26 05:21:12;;;;;;;15.18;10.25;;;13.30;99.90;;;;;;5034919;28;20070;-88
2023/10/26 05:23:39;;;;;;;16.25;11.02;;;13.30;99.90;;;;;;5131526;27;20032;-87
2023/10/26 05:26:05;;;;;;;19.67;11.65;;;13.30;99.90;;;;;;5043127;28;20077;-87
2023/10/26 05:28:31;;;;;;;16.13;11.25;;;13.30;99.90;;;;;;5034941;28;20503;-87
2023/10/26 05:30:57;;;;;;;19.95;11.65;;;13.30;99.90;;;;;;5045822;28;20040;-88
2023/10/26 05:33:22;;;;;;;17.45;11.27;;;13.30;99.90;;;;;;5032137;28;20025;-88
2023/10/26 05:35:48;;;;;;;23.50;12.55;;;13.40;99.90;;;;;;5027097;28;20026;-87
2023/10/26 05:38:18;;;;;;;21.42;13.20;;;13.40;99.90;;;;;;5020238;28;20508;-87
2023/10/26 05:40:55;;;;;;;19.42;13.55;;;13.40;99.90;;;;;;5014526;28;20026;-87
2023/10/26 05:43:21;;;;;;;24.40;13.27;;;13.40;99.90;;;;;;5034486;28;20032;-88
2023/10/26 05:45:47;;;;;;;19.52;12.25;;;13.40;99.90;;;;;;5030432;28;20033;-88
2023/10/26 05:48:13;;;;;;;19.38;12.63;;;13.40;99.90;;;;;;5049781;28;20033;-87
2023/10/26 05:50:41;;;;;;;18.73;12.57;;;13.40;99.90;;;;;;5050283;28;20032;-89
2023/10/26 05:53:08;;;;;;;19.70;13.88;;;13.40;99.90;;;;;;5040291;28;20029;-88
2023/10/26 05:55:34;;;;;;;23.25;13.48;;;13.40;99.90;;;;;;5040000;28;20108;-86
2023/10/26 05:58:00;;;;;;;25.13;15.13;;;13.40;99.90;;;;;;5031106;28;20073;-87
2023/10/26 06:00:26;;;;;;;21.77;14.80;;;13.40;99.90;;;;;;5038722;28;20025;-87
2023/10/26 06:02:52;;;;;;;27.55;16.30;;;13.40;99.90;;;;;;5050461;28;20036;-87
2023/10/26 06:05:18;;;;;;;24.30;15.27;;;13.40;99.90;;;;;;5050186;28;20519;-87
2023/10/26 06:07:44;;;;;;;24.55;15.68;;;13.40;99.90;;;;;;5031472;28;20033;-88
2023/10/26 06:10:10;;;;;;;21.15;16.42;;;13.40;99.90;;;;;;5044664;28;20036;-88
2023/10/26 06:12:36;;;;;;;22.83;16.23;;;13.40;99.90;;;;;;5043584;28;20029;-88
2023/10/26 06:15:02;;;;;;;24.85;16.25;;;13.40;99.90;;;;;;5035696;28;20021;-87
2023/10/26 06:17:28;;;;;;;24.80;16.40;;;13.50;99.90;;;;;;5029789;28;20021;-88
2023/10/26 06:19:54;;;;;;;26.63;17.55;;;13.40;99.90;;;;;;5028916;28;20022;-88
2023/10/26 06:22:19;;;;;;;23.98;17.02;;;13.50;99.90;;;;;;5030089;28;20025;-88
2023/10/26 06:24:45;;;;;;;24.88;16.90;;;13.50;99.90;;;;;;5038707;28;20025;-88
2023/10/26 06:27:11;;;;;;;26.13;16.20;;;13.50;99.90;;;;;;5043276;28;20112;-89
2023/10/26 06:29:37;;;;;;;26.48;15.07;;;13.50;99.90;;;;;;5044461;28;20032;-88
2023/10/26 06:32:03;;;;;;;27.20;16.02;;;13.50;99.90;;;;;;5053004;28;20502;-88
2023/10/26 06:34:29;;;;;;;23.40;16.30;;;13.50;99.90;;;;;;5040938;28;20050;-88
2023/10/26 06:36:55;;;;;;;27.75;17.02;;;13.50;99.90;;;;;;5042265;28;20056;-87
2023/10/26 06:39:20;;;;;;;28.02;18.30;;;13.50;99.90;;;;;;5041867;28;20021;-88
2023/10/26 06:41:47;;;;;;;29.38;18.58;;;13.50;99.90;;;;;;5046723;28;20029;-88
2023/10/26 06:44:14;;;;;;;37.03;18.92;;;13.50;99.90;;;;;;5033506;28;20110;-88
2023/10/26 06:46:39;;;;;;;29.45;17.48;;;13.60;99.90;;;;;;5034234;28;20029;-88
2023/10/26 06:49:05;;;;;;;28.52;17.60;;;13.70;99.90;;;;;;5053115;28;20029;-88
2023/10/26 06:51:31;;;;;;;25.25;15.85;;;13.70;99.90;;;;;;5053037;28;20060;-88
2023/10/26 06:53:56;;;;;;;26.77;16.55;;;13.70;99.90;;;;;;5052820;28;20038;-88
2023/10/26 06:56:22;;;;;;;23.08;16.23;;;13.80;99.90;;;;;;5052848;28;20048;-88
2023/10/26 06:58:48;;;;;;;24.73;15.65;;;13.80;99.90;;;;;;5044133;28;20032;-89
2023/10/26 07:01:13;;;;;;;22.92;15.82;;;13.80;99.90;;;;;;5049263;28;20017;-88
2023/10/26 07:03:39;;;;;;;26.92;16.30;;;13.90;99.90;;;;;;5053002;28;20021;-88
2023/10/26 07:06:05;;;;;;;23.35;17.02;;;13.90;99.90;;;;;;5037809;28;20060;-88
2023/10/26 07:08:33;;;;;;;27.52;16.73;;;13.90;99.90;;;;;;5047107;28;20446;-78
2023/10/26 07:10:59;;;;;;;25.92;17.40;;;13.90;99.90;;;;;;5039053;28;20078;-76
2023/10/26 07:13:26;;;;;;;26.00;16.80;;;13.90;99.90;;;;;;5040484;28;20085;-76
2023/10/26 07:15:51;;;;;;;25.92;17.00;;;13.90;99.90;;;;;;5047477;27;20021;-77
2023/10/26 07:18:18;;;;;;;36.40;19.45;;;14.00;99.90;;;;;;5037054;28;20048;-76
2023/10/26 07:20:48;;;;;;;24.30;17.48;;;14.00;99.90;;;;;;5039743;28;20539;-76
2023/10/26 07:23:16;;;;;;;27.85;18.00;;;14.00;99.90;;;;;;5037960;28;20018;-76
2023/10/26 07:25:41;;;;;;;29.58;17.70;;;14.10;99.90;;;;;;5040308;28;20097;-76
2023/10/26 07:28:07;;;;;;;28.20;18.33;;;14.10;99.90;;;;;;5038191;28;20033;-76
2023/10/26 07:30:39;;;;;;;26.42;17.67;;;14.10;99.90;;;;;;5041539;28;20037;-76
2023/10/26 07:33:05;;;;;;;;;;;14.20;99.90;;;;;;5041776;28;20035;-76
2023/10/26 07:35:31;;;;;;;39.78;22.10;;;14.20;99.90;;;;;;5039275;28;19905;-76
2023/10/26 07:37:56;;;;;;;49.33;24.40;;;14.30;99.90;;;;;;5047844;28;20038;-76
2023/10/26 07:40:22;;;;;;;47.17;25.40;;;14.30;99.90;;;;;;5126473;27;20547;-76
2023/10/26 07:42:48;;;;;;;46.65;24.85;;;14.40;99.90;;;;;;5039452;28;20030;-76
2023/10/26 07:45:14;;;;;;;35.78;21.83;;;14.40;99.90;;;;;;5035878;28;20074;-76
2023/10/26 07:47:39;;;;;;;32.75;20.98;;;14.40;99.90;;;;;;5040823;28;20035;-76
2023/10/26 07:50:05;;;;;;;34.63;21.88;;;14.40;99.90;;;;;;5039147;28;20025;-76
2023/10/26 07:52:31;;;;;;;36.47;22.67;;;14.50;99.90;;;;;;5126855;27;20062;-76
2023/10/26 07:54:58;;;;;;;41.90;26.10;;;14.50;99.90;;;;;;5039511;28;20507;-76
2023/10/26 07:57:25;;;;;;;38.45;22.63;;;14.50;99.90;;;;;;5041588;28;20055;-76
2023/10/26 07:59:50;;;;;;;38.42;21.30;;;14.60;99.90;;;;;;5041903;28;20028;-76
2023/10/26 08:02:16;;;;;;;47.70;27.00;;;14.60;99.90;;;;;;5038028;28;20030;-76
2023/10/26 08:04:42;;;;;;;44.30;28.52;;;14.70;99.90;;;;;;5040342;28;20036;-76
2023/10/26 08:07:08;;;;;;;45.33;30.30;;;14.70;99.90;;;;;;5039113;28;20021;-76
2023/10/26 08:09:34;;;;;;;62.20;36.13;;;14.80;99.90;;;;;;5038682;28;20032;-76
2023/10/26 08:12:00;;;;;;;66.65;39.13;;;14.90;99.90;;;;;;5040245;28;20025;-76
2023/10/26 08:14:29;;;;;;;61.92;39.95;;;14.90;99.90;;;;;;5036885;28;20048;-76
2023/10/26 08:16:56;;;;;;;59.00;37.63;;;15.00;99.90;;;;;;5039251;28;20108;-76
2023/10/26 08:19:22;;;;;;;71.20;40.20;;;15.10;99.90;;;;;;5038465;28;20025;-76
2023/10/26 08:21:48;;;;;;;68.32;41.33;;;15.10;99.90;;;;;;5047342;28;20397;-76
2023/10/26 08:24:15;;;;;;;67.13;40.92;;;15.10;99.90;;;;;;5126262;27;20025;-76
2023/10/26 08:26:41;;;;;;;66.93;41.38;;;15.20;99.90;;;;;;5040000;28;20028;-76
2023/10/26 08:29:06;;;;;;;68.75;42.33;;;15.20;99.90;;;;;;5124413;27;20025;-76
2023/10/26 08:31:36;;;;;;;71.40;42.60;;;15.30;99.90;;;;;;5039900;28;20033;-77
2023/10/26 08:34:01;;;;;;;67.75;41.28;;;15.30;99.90;;;;;;5039916;28;20025;-76
2023/10/26 08:36:27;;;;;;;70.82;41.33;;;15.40;99.90;;;;;;5038243;28;20042;-76
2023/10/26 08:38:53;;;;;;;67.80;41.63;;;15.40;99.90;;;;;;5124226;27;20461;-76
2023/10/26 08:41:18;;;;;;;69.50;42.83;;;15.50;99.90;;;;;;5041137;28;20025;-76
2023/10/26 08:43:44;;;;;;;61.50;40.42;;;15.50;99.90;;;;;;5019064;28;20021;-76
2023/10/26 08:46:11;;;;;;;68.45;41.90;;;15.50;99.90;;;;;;5038704;28;20029;-76
2023/10/26 08:48:41;;;;;;;64.10;41.60;;;15.60;99.90;;;;;;5125127;27;20021;-76
2023/10/26 08:51:07;;;;;;;91.65;42.50;;;15.60;99.90;;;;;;5040888;28;20025;-76
2023/10/26 08:53:34;;;;;;;66.95;41.08;;;15.60;99.90;;;;;;5033941;28;20504;-76
2023/10/26 08:56:00;;;;;;;61.88;38.95;;;15.60;99.90;;;;;;5039746;28;20044;-76
2023/10/26 08:58:26;;;;;;;59.85;38.08;;;15.60;99.90;;;;;;5040855;28;20029;-76
2023/10/26 09:00:52;;;;;;;58.97;37.65;;;15.70;99.90;;;;;;5039178;28;20073;-76
2023/10/26 09:03:18;;;;;;;61.90;38.40;;;15.70;99.90;;;;;;5037576;28;20370;-76
2023/10/26 09:05:55;;;;;;;59.72;36.13;;;15.80;99.90;;;;;;5038753;28;20036;-76
2023/10/26 09:08:27;;;;;;;55.65;34.65;;;15.90;99.90;;;;;;5039479;28;20074;-76
2023/10/26 09:10:53;;;;;;;60.67;36.22;;;15.90;99.90;;;;;;5035063;28;20029;-76
2023/10/26 09:13:28;;;;;;;58.55;36.72;;;16.00;99.90;;;;;;5124731;27;20406;-76
2023/10/26 09:15:58;;;;;;;59.42;36.75;;;16.00;99.90;;;;;;5039121;28;20078;-76
2023/10/26 09:18:25;;;;;;;61.17;37.05;;;16.00;99.90;;;;;;5037375;28;20552;-75
2023/10/26 09:21:06;;;;;;;60.67;36.83;;;16.00;99.90;;;;;;5037081;28;20076;-76
2023/10/26 09:23:42;;;;;;;58.13;33.63;;;16.00;99.90;;;;;;5031792;28;20026;-76
2023/10/26 09:26:09;;;;;;;51.47;34.45;;;15.90;99.90;;;;;;5037163;28;20021;-76
2023/10/26 09:28:55;;;;;;;51.42;33.10;;;16.00;99.90;;;;;;5038447;28;20029;-76
2023/10/26 09:31:23;;;;;;;53.67;34.78;;;16.00;99.90;;;;;;5052274;28;20010;-76
2023/10/26 09:33:49;;;;;;;55.97;35.30;;;16.00;99.90;;;;;;5037314;28;20029;-76
2023/10/26 09:36:17;;;;;;;61.80;36.25;;;15.90;99.90;;;;;;5036541;28;20077;-76
2023/10/26 09:38:43;;;;;;;59.65;36.25;;;16.00;99.90;;;;;;5039905;28;20025;-76
2023/10/26 09:41:12;;;;;;;57.97;34.83;;;16.00;99.90;;;;;;5036104;28;20040;-76
2023/10/26 09:43:40;;;;;;;55.78;35.60;;;16.00;99.90;;;;;;5038620;28;20105;-76
2023/10/26 09:46:07;;;;;;;56.15;35.83;;;16.00;99.90;;;;;;5035947;28;20484;-76
2023/10/26 09:48:33;;;;;;;57.47;35.72;;;16.10;99.90;;;;;;5034110;28;20109;-76
2023/10/26 09:51:01;;;;;;;54.05;35.30;;;16.00;99.90;;;;;;5038297;28;20115;-76
2023/10/26 09:53:38;;;;;;;53.58;35.72;;;16.00;99.90;;;;;;5037230;28;20053;-76
2023/10/26 09:56:06;;;;;;;67.95;37.33;;;16.10;99.90;;;;;;5032269;28;20086;-75
2023/10/26 09:58:40;;;;;;;64.57;38.05;;;16.10;99.90;;;;;;5037568;28;20029;-76
2023/10/26 10:01:37;;;;;;;55.00;36.45;;;16.10;99.90;;;;;;5034728;28;20026;-76
2023/10/26 10:04:06;;;;;;;58.33;37.50;;;16.20;99.90;;;;;;5035650;28;20026;-76
2023/10/26 10:06:54;;;;;;;59.55;38.80;;;16.20;99.90;;;;;;5041536;28;20035;-76
2023/10/26 10:09:24;;;;;;;56.92;37.38;;;16.20;99.90;;;;;;5038444;28;20036;-76
2023/10/26 10:12:13;;;;;;;59.33;38.13;;;16.30;99.90;;;;;;5038921;28;20025;-76
2023/10/26 10:14:48;;;;;;;59.85;38.25;;;16.30;99.90;;;;;;5053176;27;20358;-76
2023/10/26 10:17:43;;;;;;;57.33;37.72;;;16.40;99.90;;;;;;5040443;28;20033;-76
2023/10/26 10:20:15;;;;;;;62.10;39.58;;;16.40;99.90;;;;;;5050520;28;20049;-76
2023/10/26 10:22:41;;;;;;;;;;;16.40;99.90;;;;;;5037197;28;20112;-76
2023/10/26 10:25:10;;;;;;;58.63;37.67;;;16.40;99.90;;;;;;5041938;28;20417;-76
2023/10/26 10:27:41;;;;;;;53.67;36.03;;;16.30;99.90;;;;;;5041060;28;20033;-76
2023/10/26 10:30:13;;;;;;;56.33;37.08;;;16.30;99.90;;;;;;5039992;28;20025;-76
2023/10/26 10:32:45;;;;;;;61.22;37.75;;;16.30;99.90;;;;;;5041369;28;20025;-76
2023/10/26 10:35:12;;;;;;;57.08;38.05;;;16.40;99.90;;;;;;5042944;28;20029;-76
2023/10/26 10:37:38;;;;;;;58.88;37.08;;;16.30;99.90;;;;;;5038839;28;20366;-76
2023/10/26 10:40:16;;;;;;;66.18;41.35;;;16.30;99.90;;;;;;5127608;27;20029;-76
2023/10/26 10:42:47;;;;;;;61.33;42.25;;;16.30;99.90;;;;;;5129295;27;20056;-76
2023/10/26 10:45:14;;;;;;;67.55;44.95;;;16.30;99.90;;;;;;5040364;28;20395;-76
2023/10/26 10:47:44;;;;;;;71.20;44.42;;;16.30;99.90;;;;;;5041932;28;20081;-76
2023/10/26 10:50:22;;;;;;;70.45;43.65;;;16.30;99.90;;;;;;5037954;28;20073;-76
2023/10/26 10:52:50;;;;;;;68.38;44.95;;;16.30;99.90;;;;;;5040785;28;20094;-76
2023/10/26 10:55:29;;;;;;;67.93;44.70;;;16.30;99.90;;;;;;5039465;28;20030;-76
2023/10/26 10:58:00;;;;;;;73.53;45.47;;;16.40;99.90;;;;;;5040434;28;20074;-76
2023/10/26 11:00:28;;;;;;;65.45;46.10;;;16.50;99.90;;;;;;5041517;28;20029;-76
2023/10/26 11:02:57;;;;;;;77.15;47.63;;;16.60;99.90;;;;;;5040438;28;20125;-76
2023/10/26 11:05:38;;;;;;;69.65;45.60;;;16.60;99.90;;;;;;5039135;28;20059;-76
2023/10/26 11:08:06;;;;;;;69.50;46.42;;;16.60;99.90;;;;;;5038250;28;20366;-76
2023/10/26 11:10:31;;;;;;;68.97;45.33;;;16.60;99.90;;;;;;5038717;28;20037;-76
2023/10/26 11:12:57;;;;;;;76.72;46.08;;;16.60;99.90;;;;;;5041467;28;20021;-76
2023/10/26 11:15:33;;;;;;;75.50;44.97;;;16.60;99.90;;;;;;5033385;28;20307;-76
2023/10/26 11:18:00;;;;;;;70.93;42.50;;;16.70;99.90;;;;;;5038832;28;20033;-76
2023/10/26 11:20:34;;;;;;;59.20;41.20;;;16.70;99.90;;;;;;5042170;28;20017;-75
2023/10/26 11:22:59;;;;;;;64.47;40.70;;;16.70;99.90;;;;;;5037146;28;20116;-76
2023/10/26 11:25:26;;;;;;;67.50;41.33;;;16.70;99.90;;;;;;5042091;28;20125;-76
2023/10/26 11:27:52;;;;;;;58.25;40.72;;;16.80;99.90;;;;;;5040812;28;20089;-76
2023/10/26 11:30:17;;;;;;;59.88;40.13;;;16.80;99.90;;;;;;5039049;28;20494;-76
2023/10/26 11:32:44;;;;;;;64.78;40.65;;;16.80;99.90;;;;;;5041404;28;20025;-76
2023/10/26 11:35:13;;;;;;;61.42;39.75;;;16.90;99.90;;;;;;5039191;28;20492;-76
2023/10/26 11:37:44;;;;;;;61.63;41.08;;;16.90;99.90;;;;;;5041258;28;20045;-76
2023/10/26 11:40:12;;;;;;;66.05;41.85;;;16.90;99.90;;;;;;5019704;28;20037;-76
2023/10/26 11:42:52;;;;;;;69.35;43.35;;;16.90;99.90;;;;;;5040352;28;20033;-75
2023/10/26 11:45:20;;;;;;;66.03;42.30;;;16.80;99.90;;;;;;5035748;28;20032;-76
2023/10/26 11:47:51;;;;;;;67.03;42.25;;;16.90;99.90;;;;;;5038996;28;20356;-76
2023/10/26 11:50:24;;;;;;;61.38;42.75;;;16.90;99.90;;;;;;5038665;28;20389;-76
2023/10/26 11:52:52;;;;;;;61.45;42.53;;;16.90;99.90;;;;;;5036806;28;20037;-75
2023/10/26 11:55:20;;;;;;;70.90;44.33;;;16.90;99.90;;;;;;5038236;28;20485;-75
2023/10/26 11:57:46;;;;;;;70.20;43.95;;;16.80;99.90;;;;;;5041735;28;20019;-76
2023/10/26 12:00:12;;;;;;;66.93;41.95;;;16.80;99.90;;;;;;5038791;28;20029;-76
2023/10/26 12:02:39;;;;;;;63.95;42.30;;;16.80;99.90;;;;;;5040538;28;20101;-76
2023/10/26 12:05:12;;;;;;;60.65;41.67;;;16.80;99.90;;;;;;5040600;28;20140;-76
2023/10/26 12:07:37;;;;;;;64.97;43.60;;;16.80;99.90;;;;;;5033391;28;20049;-76
2023/10/26 12:10:04;;;;;;;75.03;43.78;;;16.90;99.90;;;;;;5128092;27;20067;-75
2023/10/26 12:12:30;;;;;;;70.22;43.90;;;16.90;99.90;;;;;;5038310;28;20082;-76
2023/10/26 12:14:55;;;;;;;67.78;43.78;;;16.90;99.90;;;;;;5038159;28;20025;-76
2023/10/26 12:17:21;;;;;;;68.97;45.63;;;17.00;99.90;;;;;;5038235;28;20035;-75
2023/10/26 12:19:47;;;;;;;69.10;45.92;;;16.90;99.90;;;;;;5041380;28;20112;-76
2023/10/26 12:22:12;;;;;;;67.20;43.13;;;16.90;99.90;;;;;;5039248;28;20026;-76
2023/10/26 12:24:38;;;;;;;70.22;42.00;;;17.00;99.90;;;;;;5041462;28;20051;-76
2023/10/26 12:27:05;;;;;;;69.38;44.53;;;17.00;99.90;;;;;;5038720;28;20108;-75
2023/10/26 12:29:31;;;;;;;70.70;45.35;;;17.00;99.90;;;;;;5041013;28;20190;-76
2023/10/26 12:31:57;;;;;;;69.95;45.22;;;17.00;99.90;;;;;;5038518;28;20028;-76
2023/10/26 12:34:23;;;;;;;69.18;44.13;;;16.90;99.90;;;;;;5038534;28;20029;-75
2023/10/26 12:36:48;;;;;;;70.05;45.10;;;16.90;99.90;;;;;;5038699;28;20407;-76